Time;durP1;ratioP1;P1;durP2;ratioP2;P2;SDS_P1;SDS_P2;PMS_P1;PMS_P2;Temp;Humidity;BMP_temperature;BMP_pressure;BME280_temperature;BME280_humidity;BME280_pressure;Samples;Min_cycle;Max_cycle;Signal;HPM_P1;HPM_P2
2023/11/16 00:02:04;;;;;;;13.10;7.27;;;;;;;;;;5098679;28;20236;-66
2023/11/16 00:04:33;;;;;;;15.20;7.00;;;;;;;;;;5115003;28;20257;-66
2023/11/16 00:07:06;;;;;;;14.10;7.53;;;;;;;;;;5118786;28;20690;-64
2023/11/16 00:09:36;;;;;;;16.00;7.07;;;;;;;;;;5108424;27;20319;-65
2023/11/16 00:12:06;;;;;;;14.50;7.77;;;;;;;;;;5098410;28;20282;-65
2023/11/16 00:14:34;;;;;;;12.10;7.07;;;;;;;;;;5098642;28;20229;-66
2023/11/16 00:17:03;;;;;;;12.37;8.03;;;;;;;;;;5106918;28;20244;-66
2023/11/16 00:19:35;;;;;;;11.60;7.50;;;;;;;;;;5098034;28;20643;-66
2023/11/16 00:22:03;;;;;;;13.37;6.50;;;;;;;;;;5098055;28;20225;-65
2023/11/16 00:24:31;;;;;;;8.23;6.00;;;;;;;;;;5115249;28;20213;-64
2023/11/16 00:27:01;;;;;;;12.00;5.77;;;;;;;;;;5112075;28;20598;-65
2023/11/16 00:29:29;;;;;;;11.33;6.73;;;;;;;;;;5105857;28;20206;-65
2023/11/16 00:31:58;;;;;;;8.93;6.43;;;;;;;;;;5109142;28;20231;-65
2023/11/16 00:34:27;;;;;;;11.03;6.20;;;;;;;;;;5117250;28;20207;-66
2023/11/16 00:36:55;;;;;;;10.60;7.17;;;;;;;;;;5118230;28;20566;-66
2023/11/16 00:39:23;;;;;;;12.83;6.20;;;;;;;;;;5116717;28;20288;-66
2023/11/16 00:41:53;;;;;;;11.80;5.63;;;;;;;;;;5115317;28;20294;-64
2023/11/16 00:44:22;;;;;;;10.70;5.13;;;;;;;;;;5109446;28;20231;-65
2023/11/16 00:46:51;;;;;;;11.00;5.80;;;;;;;;;;5117018;28;20250;-65
2023/11/16 00:49:19;;;;;;;11.80;6.90;;;;;;;;;;5117091;28;20288;-64
2023/11/16 00:51:48;;;;;;;17.50;7.30;;;;;;;;;;5109563;28;20312;-66
2023/11/16 00:54:16;;;;;;;11.47;5.57;;;;;;;;;;5108216;28;20292;-67
2023/11/16 00:56:45;;;;;;;10.80;5.50;;;;;;;;;;5111288;28;20193;-67
2023/11/16 00:59:14;;;;;;;10.43;5.03;;;;;;;;;;5101040;28;20198;-68
2023/11/16 01:01:47;;;;;;;13.63;5.63;;;;;;;;;;5098272;28;20654;-67
2023/11/16 01:04:15;;;;;;;12.00;6.03;;;;;;;;;;5102179;28;20208;-67
2023/11/16 01:06:45;;;;;;;10.83;5.97;;;;;;;;;;5117556;28;20283;-67
2023/11/16 01:09:16;;;;;;;13.07;5.30;;;;;;;;;;5114244;28;20229;-67
2023/11/16 01:11:45;;;;;;;14.63;6.13;;;;;;;;;;5116113;28;20232;-66
2023/11/16 01:14:16;;;;;;;10.10;6.03;;;;;;;;;;5120094;28;20201;-66
2023/11/16 01:16:45;;;;;;;12.77;6.17;;;;;;;;;;5112781;28;20243;-66
2023/11/16 01:19:21;;;;;;;11.47;6.00;;;;;;;;;;5111157;28;20236;-66
2023/11/16 01:21:54;;;;;;;12.93;7.13;;;;;;;;;;5122047;28;20236;-66
2023/11/16 01:24:23;;;;;;;14.63;7.10;;;;;;;;;;5121201;28;20258;-64
2023/11/16 01:26:52;;;;;;;14.13;6.07;;;;;;;;;;5121812;28;20216;-64
2023/11/16 01:29:20;;;;;;;8.53;5.63;;;;;;;;;;5113088;28;20242;-64
2023/11/16 01:31:53;;;;;;;12.23;6.10;;;;;;;;;;5116152;28;20221;-64
2023/11/16 01:34:24;;;;;;;10.83;5.90;;;;;;;;;;5108770;28;20664;-64
2023/11/16 01:36:53;;;;;;;12.97;6.50;;;;;;;;;;5108265;28;20197;-64
2023/11/16 01:39:23;;;;;;;10.10;6.70;;;;;;;;;;5118096;27;20193;-64
2023/11/16 01:41:52;;;;;;;8.80;5.13;;;;;;;;;;5125091;27;20259;-65
2023/11/16 01:44:20;;;;;;;10.63;5.20;;;;;;;;;;5121884;27;20251;-65
2023/11/16 01:46:50;;;;;;;11.53;5.80;;;;;;;;;;5128078;27;20197;-65
2023/11/16 01:49:19;;;;;;;10.73;6.07;;;;;;;;;;5124854;27;20205;-65
2023/11/16 01:51:53;;;;;;;12.47;5.40;;;;;;;;;;5124370;27;20312;-66
2023/11/16 01:54:22;;;;;;;9.77;5.73;;;;;;;;;;5127565;27;20296;-65
2023/11/16 01:56:51;;;;;;;9.73;4.87;;;;;;;;;;5124313;27;20208;-66
2023/11/16 01:59:19;;;;;;;12.93;5.13;;;;;;;;;;5118538;27;20320;-66
2023/11/16 02:01:48;;;;;;;9.80;4.43;;;;;;;;;;5121859;27;20269;-66
2023/11/16 02:04:17;;;;;;;7.60;4.23;;;;;;;;;;5122394;27;20228;-65
2023/11/16 02:06:46;;;;;;;11.33;5.87;;;;;;;;;;5123657;27;20197;-66
2023/11/16 02:09:16;;;;;;;6.53;4.10;;;;;;;;;;5129683;27;20643;-66
2023/11/16 02:11:45;;;;;;;8.63;5.60;;;;;;;;;;5131611;27;20209;-65
2023/11/16 02:14:13;;;;;;;10.33;5.20;;;;;;;;;;5127831;27;20257;-64
2023/11/16 02:16:42;;;;;;;8.87;4.70;;;;;;;;;;5129830;27;20276;-64
2023/11/16 02:19:13;;;;;;;8.23;4.40;;;;;;;;;;5123891;27;20220;-64
2023/11/16 02:21:44;;;;;;;8.70;5.33;;;;;;;;;;5125349;27;20560;-64
2023/11/16 02:24:14;;;;;;;15.27;7.33;;;;;;;;;;5126081;27;20276;-64
2023/11/16 02:26:43;;;;;;;10.33;5.40;;;;;;;;;;5127101;27;20253;-64
2023/11/16 02:29:11;;;;;;;11.60;7.17;;;;;;;;;;5127189;27;20204;-64
2023/11/16 02:31:39;;;;;;;8.30;5.20;;;;;;;;;;5120275;27;20304;-64
2023/11/16 02:34:07;;;;;;;16.10;4.50;;;;;;;;;;5123419;27;20253;-65
2023/11/16 02:36:36;;;;;;;12.63;6.30;;;;;;;;;;5126126;27;20197;-64
2023/11/16 02:39:06;;;;;;;19.03;8.03;;;;;;;;;;5124586;27;20682;-64
2023/11/16 02:41:38;;;;;;;11.17;6.57;;;;;;;;;;5125430;27;20212;-64
2023/11/16 02:44:07;;;;;;;9.07;5.37;;;;;;;;;;5123177;27;20690;-64
2023/11/16 02:46:35;;;;;;;14.23;6.20;;;;;;;;;;5130691;27;20275;-65
2023/11/16 02:49:04;;;;;;;14.93;5.23;;;;;;;;;;5121281;27;20204;-64
2023/11/16 02:51:32;;;;;;;8.37;5.10;;;;;;;;;;5125813;27;20250;-65
2023/11/16 02:54:06;;;;;;;7.40;4.67;;;;;;;;;;5126546;27;20204;-64
2023/11/16 02:56:36;;;;;;;14.67;5.43;;;;;;;;;;5128525;27;20221;-65
2023/11/16 02:59:05;;;;;;;8.00;5.43;;;;;;;;;;5123826;27;20229;-65
2023/11/16 03:01:34;;;;;;;10.23;5.13;;;;;;;;;;5120583;27;20224;-65
2023/11/16 03:04:03;;;;;;;7.17;5.00;;;;;;;;;;5098357;28;20225;-64
2023/11/16 03:06:31;;;;;;;9.70;5.63;;;;;;;;;;5102742;28;20200;-64
2023/11/16 03:08:59;;;;;;;10.80;5.13;;;;;;;;;;5099595;28;20208;-65
2023/11/16 03:11:28;;;;;;;10.03;5.33;;;;;;;;;;5099368;28;20225;-65
2023/11/16 03:13:57;;;;;;;14.53;6.07;;;;;;;;;;5099419;28;20545;-64
2023/11/16 03:16:26;;;;;;;8.07;4.70;;;;;;;;;;5108433;28;20669;-64
2023/11/16 03:18:54;;;;;;;10.40;5.20;;;;;;;;;;5098651;28;20334;-64
2023/11/16 03:21:22;;;;;;;9.50;4.90;;;;;;;;;;5099427;28;20309;-65
2023/11/16 03:23:50;;;;;;;9.93;5.23;;;;;;;;;;5112846;28;20751;-65
2023/11/16 03:26:19;;;;;;;9.77;4.77;;;;;;;;;;5118732;28;20206;-65
2023/11/16 03:28:49;;;;;;;8.07;5.10;;;;;;;;;;5115001;27;20205;-65
2023/11/16 03:31:19;;;;;;;9.77;4.83;;;;;;;;;;5117294;28;20218;-64
2023/11/16 03:33:47;;;;;;;11.87;5.07;;;;;;;;;;5111517;28;20586;-65
2023/11/16 03:36:16;;;;;;;10.00;5.27;;;;;;;;;;5098162;28;20266;-64
2023/11/16 03:38:46;;;;;;;8.13;5.27;;;;;;;;;;5105192;28;20201;-64
2023/11/16 03:41:14;;;;;;;10.70;5.63;;;;;;;;;;5118499;28;20232;-64
2023/11/16 03:43:43;;;;;;;10.43;5.30;;;;;;;;;;5117090;28;20303;-64
2023/11/16 03:46:11;;;;;;;11.13;6.00;;;;;;;;;;5102748;28;20205;-64
2023/11/16 03:48:41;;;;;;;9.43;4.83;;;;;;;;;;5118101;28;20246;-64
2023/11/16 03:51:09;;;;;;;10.10;5.73;;;;;;;;;;5119063;28;20323;-64
2023/11/16 03:53:38;;;;;;;11.47;5.73;;;;;;;;;;5118367;28;20277;-64
2023/11/16 03:56:09;;;;;;;10.70;5.13;;;;;;;;;;5118404;28;20204;-64
2023/11/16 03:58:37;;;;;;;10.53;5.53;;;;;;;;;;5113472;28;20204;-64
2023/11/16 04:01:05;;;;;;;8.43;5.53;;;;;;;;;;5101571;28;20312;-64
2023/11/16 04:03:35;;;;;;;14.27;6.07;;;;;;;;;;5101240;28;20216;-63
2023/11/16 04:06:05;;;;;;;8.90;6.67;;;;;;;;;;5114298;28;20208;-63
2023/11/16 04:08:33;;;;;;;14.00;6.70;;;;;;;;;;5098473;28;20246;-63
2023/11/16 04:11:04;;;;;;;9.37;5.63;;;;;;;;;;5098672;28;20209;-64
2023/11/16 04:13:32;;;;;;;8.53;5.40;;;;;;;;;;5098534;28;20205;-64
2023/11/16 04:16:01;;;;;;;13.37;5.90;;;;;;;;;;5107641;28;20211;-64
2023/11/16 04:18:30;;;;;;;10.00;5.53;;;;;;;;;;5098284;28;20208;-63
2023/11/16 04:20:58;;;;;;;13.97;6.07;;;;;;;;;;5098316;28;20209;-64
2023/11/16 04:23:28;;;;;;;9.00;6.67;;;;;;;;;;5098185;28;20672;-64
2023/11/16 04:25:56;;;;;;;8.73;5.97;;;;;;;;;;5098101;28;20293;-64
2023/11/16 04:28:25;;;;;;;10.53;6.17;;;;;;;;;;5106254;28;20289;-64
2023/11/16 04:30:54;;;;;;;7.57;4.77;;;;;;;;;;5117007;28;20207;-64
2023/11/16 04:33:23;;;;;;;12.00;5.43;;;;;;;;;;5103634;28;20215;-64
2023/11/16 04:35:52;;;;;;;9.83;4.93;;;;;;;;;;5117281;28;20661;-64
2023/11/16 04:38:22;;;;;;;10.47;5.97;;;;;;;;;;5108237;28;20196;-64
2023/11/16 04:40:51;;;;;;;9.80;4.80;;;;;;;;;;5117346;28;20231;-65
2023/11/16 04:43:20;;;;;;;12.03;5.47;;;;;;;;;;5106877;28;20240;-64
2023/11/16 04:45:50;;;;;;;11.43;5.27;;;;;;;;;;5118271;28;20570;-65
2023/11/16 04:48:18;;;;;;;7.97;4.30;;;;;;;;;;5116842;28;20597;-64
2023/11/16 04:50:47;;;;;;;8.37;4.60;;;;;;;;;;5118119;28;20239;-64
2023/11/16 04:53:17;;;;;;;13.23;5.03;;;;;;;;;;5117366;28;20287;-64
2023/11/16 04:55:45;;;;;;;11.47;5.40;;;;;;;;;;5118130;28;20209;-64
2023/11/16 04:58:15;;;;;;;13.00;5.10;;;;;;;;;;5110892;28;20208;-64
2023/11/16 05:00:44;;;;;;;10.87;5.10;;;;;;;;;;5109612;28;20205;-64
2023/11/16 05:03:12;;;;;;;11.33;4.97;;;;;;;;;;5101742;28;20621;-64
2023/11/16 05:05:41;;;;;;;13.47;4.70;;;;;;;;;;5106787;28;20731;-64
2023/11/16 05:08:09;;;;;;;10.90;5.87;;;;;;;;;;5111075;28;20205;-64
2023/11/16 05:10:37;;;;;;;9.30;5.43;;;;;;;;;;5107904;28;20209;-64
2023/11/16 05:13:06;;;;;;;11.27;5.30;;;;;;;;;;5116781;28;20253;-64
2023/11/16 05:15:35;;;;;;;13.90;5.30;;;;;;;;;;5117932;28;20215;-64
2023/11/16 05:18:06;;;;;;;10.17;5.10;;;;;;;;;;5099655;28;20289;-64
2023/11/16 05:20:34;;;;;;;10.43;5.13;;;;;;;;;;5118224;28;20287;-64
2023/11/16 05:23:02;;;;;;;9.63;5.13;;;;;;;;;;5116711;28;20328;-64
2023/11/16 05:25:32;;;;;;;10.70;4.90;;;;;;;;;;5117012;28;20284;-64
2023/11/16 05:28:03;;;;;;;18.07;5.67;;;;;;;;;;5115610;28;20296;-64
2023/11/16 05:30:33;;;;;;;9.10;4.70;;;;;;;;;;5106765;28;20590;-64
2023/11/16 05:33:03;;;;;;;11.03;5.27;;;;;;;;;;5104245;28;20286;-64
2023/11/16 05:35:32;;;;;;;13.80;5.30;;;;;;;;;;5100694;28;20224;-64
2023/11/16 05:38:00;;;;;;;8.33;4.40;;;;;;;;;;5097406;28;20232;-65
2023/11/16 05:40:29;;;;;;;11.13;5.20;;;;;;;;;;5097466;28;20205;-64
2023/11/16 05:42:58;;;;;;;10.87;4.03;;;;;;;;;;5105745;28;20308;-64
2023/11/16 05:45:28;;;;;;;8.80;5.13;;;;;;;;;;5097476;28;20229;-65
2023/11/16 05:47:57;;;;;;;7.77;4.17;;;;;;;;;;5097487;28;20206;-69
2023/11/16 05:50:27;;;;;;;14.23;4.90;;;;;;;;;;5097106;28;20747;-69
2023/11/16 05:52:57;;;;;;;8.13;5.40;;;;;;;;;;5097120;28;20234;-69
2023/11/16 05:55:26;;;;;;;12.90;5.70;;;;;;;;;;5110972;28;20197;-68
2023/11/16 05:57:55;;;;;;;10.37;6.17;;;;;;;;;;5104083;28;20284;-69
2023/11/16 06:00:23;;;;;;;14.63;7.40;;;;;;;;;;5112164;28;20264;-69
2023/11/16 06:02:52;;;;;;;17.83;7.50;;;;;;;;;;5120032;28;20227;-70
2023/11/16 06:05:20;;;;;;;11.73;5.37;;;;;;;;;;5101103;28;20229;-71
2023/11/16 06:07:50;;;;;;;11.87;5.90;;;;;;;;;;5101140;28;20205;-70
2023/11/16 06:10:18;;;;;;;13.43;6.13;;;;;;;;;;5102691;28;20208;-70
2023/11/16 06:13:03;;;;;;;12.37;5.67;;;;;;;;;;5115506;27;20264;-70
2023/11/16 06:15:44;;;;;;;14.33;5.87;;;;;;;;;;5116570;27;20249;-69
2023/11/16 06:18:13;;;;;;;11.07;5.43;;;;;;;;;;5100184;28;20288;-68
2023/11/16 06:20:43;;;;;;;12.23;5.40;;;;;;;;;;5104510;27;20233;-71
2023/11/16 06:23:13;;;;;;;12.30;5.60;;;;;;;;;;5112662;27;20284;-69
2023/11/16 06:25:43;;;;;;;10.43;5.47;;;;;;;;;;5100268;28;20871;-63
2023/11/16 06:28:49;;;;;;;13.87;5.60;;;;;;;;;;5118827;27;20287;-66
2023/11/16 06:31:20;;;;;;;12.73;4.73;;;;;;;;;;5099548;28;20225;-64
2023/11/16 06:33:49;;;;;;;11.00;6.17;;;;;;;;;;5106700;28;20234;-63
2023/11/16 06:36:17;;;;;;;7.07;5.07;;;;;;;;;;5098546;28;20198;-64
2023/11/16 06:38:47;;;;;;;11.17;6.40;;;;;;;;;;5104175;28;20236;-63
2023/11/16 06:41:16;;;;;;;11.10;5.57;;;;;;;;;;5105431;28;20688;-64
2023/11/16 06:43:45;;;;;;;14.73;6.23;;;;;;;;;;5104806;27;20193;-63
2023/11/16 06:46:15;;;;;;;10.17;6.40;;;;;;;;;;5108045;28;20193;-63
2023/11/16 06:48:44;;;;;;;8.97;5.43;;;;;;;;;;5099961;28;20715;-63
2023/11/16 06:51:13;;;;;;;10.27;5.20;;;;;;;;;;5105125;28;20298;-63
2023/11/16 06:53:42;;;;;;;10.93;5.27;;;;;;;;;;5099217;28;21261;-63
2023/11/16 06:56:14;;;;;;;11.67;6.17;;;;;;;;;;5101447;28;20197;-63
2023/11/16 06:58:43;;;;;;;11.07;4.83;;;;;;;;;;5107942;27;20197;-63
2023/11/16 07:01:12;;;;;;;13.10;5.27;;;;;;;;;;5105033;28;20288;-63
2023/11/16 07:03:42;;;;;;;7.93;5.13;;;;;;;;;;5099384;28;20204;-64
2023/11/16 07:06:36;;;;;;;13.50;5.33;;;;;;;;;;5106201;27;21029;-62
2023/11/16 07:09:59;;;;;;;11.10;6.03;;;;;;;;;;5066413;28;20550;-63
2023/11/16 07:13:17;;;;;;;17.23;6.97;;;;;;;;;;5045790;28;20233;-62
2023/11/16 07:15:56;;;;;;;10.77;5.47;;;;;;;;;;5105264;28;20235;-62
2023/11/16 07:18:37;;;;;;;9.17;5.13;;;;;;;;;;5101596;28;20204;-63
2023/11/16 07:21:11;;;;;;;11.50;5.47;;;;;;;;;;5105795;28;20220;-63
2023/11/16 07:23:48;;;;;;;11.13;5.50;;;;;;;;;;5102910;28;20663;-63
2023/11/16 07:29:39;;;;;;;13.67;6.53;;;;;;;;;;5100047;28;20815;-64
2023/11/16 07:32:27;;;;;;;9.10;5.43;;;;;;;;;;5100976;28;20324;-62
2023/11/16 07:35:14;;;;;;;13.73;5.80;;;;;;;;;;5102560;28;20647;-63
2023/11/16 07:37:48;;;;;;;14.93;5.60;;;;;;;;;;5101479;28;20232;-63
2023/11/16 07:40:30;;;;;;;13.10;5.00;;;;;;;;;;5103824;28;20196;-63
2023/11/16 07:43:06;;;;;;;14.80;5.00;;;;;;;;;;5105363;27;20224;-63
2023/11/16 07:45:46;;;;;;;10.77;4.93;;;;;;;;;;5103319;28;20217;-63
2023/11/16 07:48:20;;;;;;;10.97;5.10;;;;;;;;;;5102401;27;20288;-63
2023/11/16 07:51:07;;;;;;;;;;;;;;;;;;;;;
2023/11/16 07:53:51;;;;;;;13.27;5.40;;;;;;;;;;5104548;27;20554;-63
2023/11/16 07:56:27;;;;;;;7.90;4.73;;;;;;;;;;5101369;28;20192;-63
2023/11/16 07:58:59;;;;;;;5.27;3.80;;;;;;;;;;5099955;28;20200;-64
2023/11/16 08:01:55;;;;;;;13.00;4.43;;;;;;;;;;5102899;28;20217;-64
2023/11/16 08:04:31;;;;;;;5.87;4.10;;;;;;;;;;5100763;28;20203;-63
2023/11/16 08:07:11;;;;;;;8.07;4.30;;;;;;;;;;5108248;27;20201;-65
2023/11/16 08:09:46;;;;;;;7.17;4.77;;;;;;;;;;5098158;28;20205;-64
2023/11/16 08:12:27;;;;;;;4.97;3.80;;;;;;;;;;5098281;28;20232;-63
2023/11/16 08:18:17;;;;;;;8.00;3.80;;;;;;;;;;5097387;28;20293;-63
2023/11/16 08:20:55;;;;;;;6.40;3.37;;;;;;;;;;5116913;28;20243;-63
2023/11/16 08:23:31;;;;;;;7.77;3.70;;;;;;;;;;5118396;28;20208;-63
2023/11/16 08:26:22;;;;;;;8.63;4.07;;;;;;;;;;5111965;28;20225;-63
2023/11/16 08:28:59;;;;;;;7.77;4.00;;;;;;;;;;5106228;28;20197;-63
2023/11/16 08:31:30;;;;;;;10.33;3.70;;;;;;;;;;5104541;28;20224;-63
2023/11/16 08:34:04;;;;;;;6.33;3.23;;;;;;;;;;5102038;28;20224;-64
2023/11/16 08:36:42;;;;;;;11.77;4.10;;;;;;;;;;5098497;28;20193;-64
2023/11/16 08:39:20;;;;;;;5.03;3.60;;;;;;;;;;5102581;27;20200;-65
2023/11/16 08:41:58;;;;;;;6.80;3.57;;;;;;;;;;5102440;28;20220;-64
2023/11/16 08:44:29;;;;;;;5.53;3.63;;;;;;;;;;5099834;28;20211;-64
2023/11/16 08:47:07;;;;;;;10.67;3.33;;;;;;;;;;5103891;28;20220;-65
2023/11/16 08:49:59;;;;;;;6.63;3.43;;;;;;;;;;5101106;28;20201;-64
2023/11/16 08:52:35;;;;;;;6.93;3.60;;;;;;;;;;5103674;28;20715;-65
2023/11/16 08:55:03;;;;;;;7.97;4.10;;;;;;;;;;5097655;28;20634;-63
2023/11/16 08:57:32;;;;;;;8.83;4.07;;;;;;;;;;5106114;27;20206;-65
2023/11/16 09:00:25;;;;;;;6.20;3.70;;;;;;;;;;5110060;28;20266;-65
2023/11/16 09:02:51;;;;;;;8.77;3.83;;;;;;;;;;5104063;28;20225;-66
2023/11/16 09:05:51;;;;;;;5.43;3.70;;;;;;;;;;5102812;28;20656;-66
2023/11/16 09:08:37;;;;;;;8.07;3.40;;;;;;;;;;5101901;28;20686;-68
2023/11/16 09:11:27;;;;;;;6.90;3.57;;;;;;;;;;5102111;28;20250;-67
2023/11/16 09:14:09;;;;;;;6.13;3.77;;;;;;;;;;5099426;28;20200;-67
2023/11/16 09:16:49;;;;;;;7.53;3.70;;;;;;;;;;5100478;28;20202;-67
2023/11/16 09:19:43;;;;;;;8.20;4.03;;;;;;;;;;5101870;28;20254;-67
2023/11/16 09:22:40;;;;;;;6.87;4.30;;;;;;;;;;5103195;28;20270;-64
2023/11/16 09:25:19;;;;;;;9.57;4.83;;;;;;;;;;5101199;28;20562;-65
2023/11/16 09:27:54;;;;;;;5.97;3.90;;;;;;;;;;5102727;28;20200;-66
2023/11/16 09:30:38;;;;;;;6.17;3.63;;;;;;;;;;5107590;28;20246;-65
2023/11/16 09:33:23;;;;;;;5.17;3.07;;;;;;;;;;5107043;28;20594;-66
2023/11/16 09:35:59;;;;;;;5.13;3.40;;;;;;;;;;5103383;27;20201;-66
2023/11/16 09:38:37;;;;;;;6.47;3.77;;;;;;;;;;5105349;28;20211;-67
2023/11/16 09:41:15;;;;;;;7.33;3.60;;;;;;;;;;5116496;28;20224;-66
2023/11/16 09:43:53;;;;;;;9.80;3.07;;;;;;;;;;5102528;28;20210;-65
2023/11/16 09:46:36;;;;;;;5.83;3.10;;;;;;;;;;5111502;28;20225;-65
2023/11/16 09:49:09;;;;;;;11.10;3.67;;;;;;;;;;5106666;28;20204;-65
2023/11/16 09:51:52;;;;;;;8.43;3.30;;;;;;;;;;5106176;28;20352;-65
2023/11/16 09:54:28;;;;;;;7.13;3.63;;;;;;;;;;5105719;28;20197;-65
2023/11/16 09:57:06;;;;;;;6.87;2.80;;;;;;;;;;5105164;28;20212;-65
2023/11/16 10:03:05;;;;;;;5.57;2.40;;;;;;;;;;5104301;28;20221;-66
2023/11/16 10:06:20;;;;;;;4.37;2.40;;;;;;;;;;5100631;28;20228;-66
2023/11/16 10:08:57;;;;;;;5.47;2.80;;;;;;;;;;5100592;28;20197;-66
2023/11/16 10:11:35;;;;;;;8.00;3.00;;;;;;;;;;5100406;28;20251;-66
2023/11/16 10:14:14;;;;;;;5.10;2.43;;;;;;;;;;5100517;28;20661;-66
2023/11/16 10:23:57;;;;;;;7.13;2.20;;;;;;;;;;5085994;28;20677;-65
2023/11/16 10:26:42;;;;;;;2.30;2.10;;;;;;;;;;5110641;28;20225;-66
2023/11/16 10:29:18;;;;;;;2.10;1.87;;;;;;;;;;5105082;28;20201;-65
2023/11/16 10:31:51;;;;;;;4.83;1.70;;;;;;;;;;5104584;28;20248;-65
2023/11/16 10:34:43;;;;;;;5.97;1.73;;;;;;;;;;5103679;28;20196;-65
2023/11/16 10:37:20;;;;;;;3.60;1.70;;;;;;;;;;5106012;28;20201;-66
2023/11/16 10:40:02;;;;;;;4.10;1.53;;;;;;;;;;5104398;28;20298;-66
2023/11/16 10:42:41;;;;;;;6.73;1.70;;;;;;;;;;5103202;28;20658;-66
2023/11/16 10:45:15;;;;;;;8.43;1.57;;;;;;;;;;5099515;28;20288;-66
2023/11/16 10:47:50;;;;;;;1.20;1.07;;;;;;;;;;5103928;28;20221;-66
2023/11/16 10:50:25;;;;;;;3.23;1.20;;;;;;;;;;5104033;28;20200;-65
2023/11/16 10:52:54;;;;;;;7.13;1.70;;;;;;;;;;5103388;28;20225;-66
2023/11/16 10:55:24;;;;;;;4.73;1.47;;;;;;;;;;5105081;28;20204;-66
2023/11/16 10:58:00;;;;;;;3.17;0.97;;;;;;;;;;5107170;28;20276;-64
2023/11/16 11:00:34;;;;;;;2.63;1.20;;;;;;;;;;5102000;28;20204;-64
2023/11/16 11:03:06;;;;;;;4.90;1.43;;;;;;;;;;5102272;28;20898;-64
2023/11/16 11:05:36;;;;;;;3.23;0.80;;;;;;;;;;5101063;28;20209;-65
2023/11/16 11:08:07;;;;;;;3.63;1.20;;;;;;;;;;5106554;28;20231;-66
2023/11/16 11:10:37;;;;;;;1.50;0.90;;;;;;;;;;5101967;28;20264;-66
2023/11/16 11:13:06;;;;;;;3.77;1.07;;;;;;;;;;5111220;28;20227;-66
2023/11/16 11:15:37;;;;;;;0.90;0.70;;;;;;;;;;5117279;28;20202;-66
2023/11/16 11:18:05;;;;;;;1.57;0.90;;;;;;;;;;5103954;28;20203;-66
2023/11/16 11:20:36;;;;;;;5.93;1.50;;;;;;;;;;5102605;28;20206;-66
2023/11/16 11:23:06;;;;;;;1.17;0.90;;;;;;;;;;5099974;28;20252;-66
2023/11/16 11:25:36;;;;;;;2.97;1.20;;;;;;;;;;5105150;27;20205;-66
2023/11/16 11:28:05;;;;;;;2.73;1.10;;;;;;;;;;5103454;27;20216;-66
2023/11/16 11:30:37;;;;;;;2.20;1.23;;;;;;;;;;5113978;27;20284;-66
2023/11/16 11:33:14;;;;;;;2.90;1.20;;;;;;;;;;5108204;27;20220;-71
2023/11/16 11:35:52;;;;;;;4.43;1.30;;;;;;;;;;5110385;28;20288;-72
2023/11/16 11:38:27;;;;;;;2.83;1.00;;;;;;;;;;5103731;28;20224;-69
2023/11/16 11:40:59;;;;;;;1.17;0.70;;;;;;;;;;5103308;28;20197;-68
2023/11/16 11:43:29;;;;;;;2.57;0.90;;;;;;;;;;5098786;28;20229;-67
2023/11/16 11:45:57;;;;;;;3.77;1.10;;;;;;;;;;5106466;28;20242;-67
2023/11/16 11:48:27;;;;;;;2.33;0.83;;;;;;;;;;5115093;27;20320;-67
2023/11/16 11:50:57;;;;;;;4.10;1.57;;;;;;;;;;5101634;28;20599;-72
2023/11/16 11:53:29;;;;;;;1.70;0.80;;;;;;;;;;5115392;28;20378;-69
2023/11/16 11:55:57;;;;;;;1.53;1.10;;;;;;;;;;5116931;28;20209;-70
2023/11/16 11:58:26;;;;;;;3.13;1.20;;;;;;;;;;5100036;28;20198;-70
2023/11/16 12:00:56;;;;;;;2.63;1.77;;;;;;;;;;5098037;28;20209;-70
2023/11/16 12:03:25;;;;;;;3.10;0.90;;;;;;;;;;5107657;28;20661;-70
2023/11/16 12:05:59;;;;;;;1.33;0.90;;;;;;;;;;5098026;28;20205;-70
2023/11/16 12:08:38;;;;;;;1.13;1.03;;;;;;;;;;5098098;28;20614;-70
2023/11/16 12:11:09;;;;;;;3.13;1.00;;;;;;;;;;5098657;28;20316;-70
2023/11/16 12:13:40;;;;;;;1.97;0.90;;;;;;;;;;5098466;28;20202;-70
2023/11/16 12:16:10;;;;;;;7.13;1.57;;;;;;;;;;5107069;28;20625;-70
2023/11/16 12:18:41;;;;;;;6.13;1.00;;;;;;;;;;5115041;28;20216;-70
2023/11/16 12:21:14;;;;;;;0.80;0.80;;;;;;;;;;5117069;28;20261;-70
2023/11/16 12:23:44;;;;;;;2.20;0.80;;;;;;;;;;5116729;28;20287;-70
2023/11/16 12:26:12;;;;;;;0.80;0.67;;;;;;;;;;5099523;28;20201;-70
2023/11/16 12:28:41;;;;;;;1.30;0.83;;;;;;;;;;5114075;28;20229;-70
2023/11/16 12:31:11;;;;;;;2.43;0.97;;;;;;;;;;5111910;28;20220;-69
2023/11/16 12:33:41;;;;;;;4.20;0.87;;;;;;;;;;5108726;28;20200;-69
2023/11/16 12:36:17;;;;;;;0.70;0.57;;;;;;;;;;5111339;28;20258;-70
2023/11/16 12:38:56;;;;;;;2.10;0.60;;;;;;;;;;5098273;28;20217;-69
2023/11/16 12:41:32;;;;;;;1.70;0.90;;;;;;;;;;5104233;28;20224;-71
2023/11/16 12:44:01;;;;;;;1.70;0.70;;;;;;;;;;5103810;28;20204;-70
2023/11/16 12:46:29;;;;;;;1.40;0.80;;;;;;;;;;5104297;28;20205;-70
2023/11/16 12:48:58;;;;;;;2.50;0.80;;;;;;;;;;5098417;28;20217;-70
2023/11/16 12:51:27;;;;;;;1.93;0.60;;;;;;;;;;5101599;28;20240;-69
2023/11/16 12:53:59;;;;;;;0.93;0.73;;;;;;;;;;5101277;28;20228;-71
2023/11/16 12:56:27;;;;;;;1.40;0.60;;;;;;;;;;5101990;28;20201;-68
2023/11/16 12:58:57;;;;;;;1.87;0.90;;;;;;;;;;5101191;28;20197;-68
2023/11/16 13:01:25;;;;;;;1.93;0.63;;;;;;;;;;5099379;28;20220;-67
2023/11/16 13:03:53;;;;;;;3.30;0.80;;;;;;;;;;5098962;28;20216;-68
2023/11/16 13:06:22;;;;;;;2.93;0.70;;;;;;;;;;5100381;28;20208;-68
2023/11/16 13:08:51;;;;;;;12.30;5.87;;;;;;;;;;5117358;28;20288;-65
2023/11/16 13:11:21;;;;;;;2.93;1.60;;;;;;;;;;5097851;28;20225;-66
2023/11/16 13:13:50;;;;;;;1.90;1.07;;;;;;;;;;5104659;28;20200;-67
2023/11/16 13:16:25;;;;;;;2.30;0.90;;;;;;;;;;5113853;28;20201;-68
2023/11/16 13:18:54;;;;;;;0.80;0.60;;;;;;;;;;5116596;28;20205;-68
2023/11/16 13:21:23;;;;;;;2.27;0.70;;;;;;;;;;5114017;28;20277;-68
2023/11/16 13:23:53;;;;;;;0.60;0.60;;;;;;;;;;5114166;28;20200;-69
2023/11/16 13:26:23;;;;;;;1.23;0.50;;;;;;;;;;5113700;28;20283;-69
2023/11/16 13:28:52;;;;;;;0.67;0.50;;;;;;;;;;5095628;28;20218;-69
2023/11/16 13:31:21;;;;;;;1.97;0.90;;;;;;;;;;5114708;28;20243;-67
2023/11/16 13:33:50;;;;;;;3.10;0.90;;;;;;;;;;5117663;28;20204;-67
2023/11/16 13:36:19;;;;;;;2.20;0.70;;;;;;;;;;5114490;28;20201;-69
2023/11/16 13:38:53;;;;;;;10.83;1.60;;;;;;;;;;5097217;28;20201;-68
2023/11/16 13:41:23;;;;;;;2.53;1.10;;;;;;;;;;5102135;28;20220;-70
2023/11/16 13:43:51;;;;;;;1.37;0.80;;;;;;;;;;5116263;28;20207;-68
2023/11/16 13:46:20;;;;;;;3.37;1.10;;;;;;;;;;5114801;28;20561;-69
2023/11/16 13:48:48;;;;;;;4.63;0.93;;;;;;;;;;5109447;28;20225;-67
2023/11/16 13:51:16;;;;;;;1.40;1.00;;;;;;;;;;5114558;28;20241;-68
2023/11/16 13:53:45;;;;;;;1.00;0.90;;;;;;;;;;5105599;28;20193;-67
2023/11/16 13:56:13;;;;;;;0.90;0.90;;;;;;;;;;5115581;28;20196;-68
2023/11/16 13:58:43;;;;;;;5.87;1.30;;;;;;;;;;5117181;28;20663;-68
2023/11/16 14:01:14;;;;;;;6.30;1.27;;;;;;;;;;5113537;28;20311;-67
2023/11/16 14:03:42;;;;;;;3.60;0.97;;;;;;;;;;5100466;28;20589;-67
2023/11/16 14:06:10;;;;;;;3.90;1.00;;;;;;;;;;5095890;28;20198;-67
2023/11/16 14:08:41;;;;;;;2.37;0.93;;;;;;;;;;5096856;28;20217;-67
2023/11/16 14:11:12;;;;;;;0.90;0.70;;;;;;;;;;5097422;28;20221;-67
2023/11/16 14:13:43;;;;;;;1.37;0.60;;;;;;;;;;5097004;28;20202;-68
2023/11/16 14:16:13;;;;;;;1.20;1.10;;;;;;;;;;5106926;28;20209;-67
2023/11/16 14:18:41;;;;;;;0.53;0.53;;;;;;;;;;5100624;28;20237;-66
2023/11/16 14:21:10;;;;;;;1.53;0.70;;;;;;;;;;5100492;28;20232;-68
2023/11/16 14:23:38;;;;;;;1.97;0.90;;;;;;;;;;5100687;28;20208;-68
2023/11/16 14:26:12;;;;;;;1.73;0.60;;;;;;;;;;5100714;28;20251;-67
2023/11/16 14:28:40;;;;;;;0.70;0.70;;;;;;;;;;5117385;28;20223;-68
2023/11/16 14:31:10;;;;;;;2.53;1.53;;;;;;;;;;5116263;28;20228;-68
2023/11/16 14:33:38;;;;;;;2.10;0.83;;;;;;;;;;5107741;28;20605;-67
2023/11/16 14:36:07;;;;;;;2.00;0.80;;;;;;;;;;5119981;28;20208;-67
2023/11/16 14:38:35;;;;;;;2.97;1.47;;;;;;;;;;5119917;27;20197;-68
2023/11/16 14:41:05;;;;;;;1.10;0.80;;;;;;;;;;5104743;28;20197;-68
2023/11/16 14:43:34;;;;;;;0.60;0.60;;;;;;;;;;5120571;28;20304;-68
2023/11/16 14:46:02;;;;;;;1.60;0.77;;;;;;;;;;5104483;28;20201;-67
2023/11/16 14:48:32;;;;;;;1.70;1.10;;;;;;;;;;5118434;28;20705;-68
2023/11/16 14:51:00;;;;;;;4.03;0.97;;;;;;;;;;5119513;28;20237;-68
2023/11/16 14:53:29;;;;;;;4.00;0.77;;;;;;;;;;5100262;28;20285;-67
2023/11/16 14:56:02;;;;;;;1.70;0.70;;;;;;;;;;5098470;28;20212;-68
2023/11/16 14:58:30;;;;;;;1.10;0.70;;;;;;;;;;5114305;28;20293;-68
2023/11/16 15:00:59;;;;;;;2.13;0.87;;;;;;;;;;5104825;27;20201;-67
2023/11/16 15:03:27;;;;;;;3.63;0.80;;;;;;;;;;5112836;28;20266;-68
2023/11/16 15:05:57;;;;;;;2.30;0.60;;;;;;;;;;5118989;28;20192;-68
2023/11/16 15:08:25;;;;;;;3.07;1.17;;;;;;;;;;5109219;28;20734;-67
2023/11/16 15:10:54;;;;;;;1.67;0.90;;;;;;;;;;5099079;28;20260;-69
2023/11/16 15:13:23;;;;;;;2.77;0.90;;;;;;;;;;5113011;28;20205;-68
2023/11/16 15:15:51;;;;;;;0.67;0.60;;;;;;;;;;5108767;28;20665;-67
2023/11/16 15:18:19;;;;;;;1.67;0.83;;;;;;;;;;5114491;28;20201;-68
2023/11/16 15:20:48;;;;;;;2.23;1.33;;;;;;;;;;5119049;28;20287;-68
2023/11/16 15:23:17;;;;;;;1.97;0.90;;;;;;;;;;5119758;28;20755;-69
2023/11/16 15:25:46;;;;;;;3.50;0.83;;;;;;;;;;5118732;28;20284;-67